Schedule Details


Flight Number: CTN491
Departure: Heathrow (EGLL) at 11:50
Arrival: Krk Island (LDRI) at 15:05
Route: DET UL6 DVR UL9 KONAN UL607 ILB Y560 ARMIX

Weather Information
EGLL 171120Z VRB03KT 9999 BKN007 OVC013 14/13 Q1019
LDRI 171100Z VRB02KT 9999 SCT053 21/13 Q1018
Schedule Frequency

Route Map